Airfield :
LOGIN :

Register | Disclaimer

   EN    FR    IT 

 










Legend :    VFR   Marginal VFR   IFR   Intensive IFR   Very Intensive IFR
Visi :
Ceiling :
>= 8 km
>= 3000ft
5 to 8 km
1000 to 3000 ft
1500m to 5 km
500 to 1000 ft
800 to 1500m
200 to 500 ft
< 800m
< 200 ft
Symbols :   Thunderstorms  Fog  Heavy snow  Heavy precipitations  Wind > 20 kt
SIGMETs :     Misc.  Thunderstorms  Icing  Turbulence  Mountain Waves  Volcanic Ashes






- Airport Elevation : 876 ft
- IATA code : MBX


LJMB - Maribor

CURRENT METAR :
  • 050100Z AUTO 34008KT 9999 -RA NSC 18/17 Q1009

EXPIRED METARs :
  • 050030Z AUTO 34005KT 9999 DZ FEW050/// OVC088/// 18/17 Q1010
  • 050000Z AUTO 36005KT 9999 NSC 18/17 Q1009
  • 042330Z AUTO 36003KT 9999 NSC 18/17 Q1009
  • 042300Z AUTO 35003KT 9999 NSC 18/17 Q1010
  • 042230Z AUTO 34004KT 9999 NSC 18/18 Q1011
  • 042200Z AUTO 36004KT 9999 NSC 18/18 Q1011

TAF TAF LJMB
Valid from the 05 at 00:00 until the 06 at 00:00 UTC


042300Z 0500/0524 VRB02KT 9999 FEW030
TEMPO 0502/0506 8000 SHRA SCT035TCU BKN040
TEMPO 0502/0506 VRB15G25KT 5000 TSRA SCT035CB BKN040
TEMPO 0509/0513 8000 SHRA SCT030TCU BKN040
TEMPO 0509/0513 5000 TSRA SCT035CB BKN040
BECMG 0512/0514 SCT050



MET'MAP, your aeronautical weather chart ! - Copyright ORBIFLY December 2007 - Disclaimer

ORBIFLY MET'MAP TEAM :

Programming & Development : Alexandra Zaïnal
Concept & original design : Baudouin d'Aumeries
Assistance for programming : Marc-Olivier Méhu
Technical & hardware support : Manuel Goepfert

Contact : metmap@orbifly.com




SOURCES & CREDITS :

   NOAA